sensor_id;sensor_type;location;lat;lon;timestamp;pressure;altitude;pressure_sealevel;temperature;humidity
9281;BME280;4679;47.966;7.958;2023-01-25T07:17:31;98345.22;;;1.46;87.01
9281;BME280;4679;47.966;7.958;2023-01-25T07:19:33;98347.84;;;1.46;86.86
9281;BME280;4679;47.966;7.958;2023-01-25T07:21:35;98348.06;;;1.53;87.07
9281;BME280;4679;47.966;7.958;2023-01-25T07:23:36;98356.06;;;1.51;86.40
9281;BME280;4679;47.966;7.958;2023-01-25T07:25:42;98352.94;;;1.56;86.55
9281;BME280;4679;47.966;7.958;2023-01-25T07:27:44;98338.06;;;1.56;86.56
9281;BME280;4679;47.966;7.958;2023-01-25T07:29:45;98347.22;;;1.52;86.93
9281;BME280;4679;47.966;7.958;2023-01-25T07:31:47;98345.91;;;1.48;87.36
9281;BME280;4679;47.966;7.958;2023-01-25T07:33:51;98349.63;;;1.46;86.66
9281;BME280;4679;47.966;7.958;2023-01-25T07:35:53;98348.66;;;1.47;86.97
9281;BME280;4679;47.966;7.958;2023-01-25T07:37:54;98346.41;;;1.52;87.33
9281;BME280;4679;47.966;7.958;2023-01-25T07:39:56;98346.06;;;1.55;87.05
9281;BME280;4679;47.966;7.958;2023-01-25T07:41:58;98346.59;;;1.58;86.60
9281;BME280;4679;47.966;7.958;2023-01-25T07:43:59;98351.00;;;1.58;87.07
9281;BME280;4679;47.966;7.958;2023-01-25T07:46:01;98351.66;;;1.60;87.35
9281;BME280;4679;47.966;7.958;2023-01-25T07:48:07;98349.06;;;1.60;86.70
9281;BME280;4679;47.966;7.958;2023-01-25T07:50:12;98355.09;;;1.60;87.53
9281;BME280;4679;47.966;7.958;2023-01-25T07:52:13;98353.31;;;1.61;87.24
9281;BME280;4679;47.966;7.958;2023-01-25T07:54:15;98355.25;;;1.59;87.36
9281;BME280;4679;47.966;7.958;2023-01-25T07:56:17;98351.31;;;1.55;87.41
9281;BME280;4679;47.966;7.958;2023-01-25T07:58:19;98349.19;;;1.50;87.32
9281;BME280;4679;47.966;7.958;2023-01-25T08:00:21;98348.84;;;1.53;87.34
9281;BME280;4679;47.966;7.958;2023-01-25T08:02:22;98357.06;;;1.58;87.26
9281;BME280;4679;47.966;7.958;2023-01-25T08:04:24;98353.97;;;1.63;87.33
9281;BME280;4679;47.966;7.958;2023-01-25T08:06:29;98355.94;;;1.69;87.31
9281;BME280;4679;47.966;7.958;2023-01-25T08:08:35;98349.59;;;1.71;87.55
9281;BME280;4679;47.966;7.958;2023-01-25T08:10:37;98346.31;;;1.69;86.92
9281;BME280;4679;47.966;7.958;2023-01-25T08:12:43;98340.91;;;1.71;87.20
9281;BME280;4679;47.966;7.958;2023-01-25T08:14:45;98339.78;;;1.73;87.63
9281;BME280;4679;47.966;7.958;2023-01-25T08:16:49;98335.38;;;1.74;87.24
9281;BME280;4679;47.966;7.958;2023-01-25T08:18:52;98329.38;;;1.82;87.54
9281;BME280;4679;47.966;7.958;2023-01-25T08:20:56;98325.28;;;1.87;87.63
9281;BME280;4679;47.966;7.958;2023-01-25T08:22:59;98333.03;;;1.97;86.81
9281;BME280;4679;47.966;7.958;2023-01-25T08:25:01;98328.91;;;1.94;86.84
9281;BME280;4679;47.966;7.958;2023-01-25T08:27:03;98332.00;;;1.90;87.62
9281;BME280;4679;47.966;7.958;2023-01-25T08:29:05;98327.56;;;1.82;87.27
9281;BME280;4679;47.966;7.958;2023-01-25T08:31:08;98329.84;;;1.77;87.03
9281;BME280;4679;47.966;7.958;2023-01-25T08:33:10;98330.66;;;1.77;87.72
9281;BME280;4679;47.966;7.958;2023-01-25T08:35:12;98338.50;;;1.77;86.98
9281;BME280;4679;47.966;7.958;2023-01-25T08:37:13;98336.25;;;1.83;87.74
9281;BME280;4679;47.966;7.958;2023-01-25T08:39:16;98324.47;;;1.87;87.30
9281;BME280;4679;47.966;7.958;2023-01-25T08:41:18;98326.94;;;1.88;87.06
9281;BME280;4679;47.966;7.958;2023-01-25T08:43:20;98315.78;;;1.86;87.61
9281;BME280;4679;47.966;7.958;2023-01-25T08:45:21;98315.78;;;1.86;86.92
9281;BME280;4679;47.966;7.958;2023-01-25T08:47:23;98311.88;;;1.90;87.59
9281;BME280;4679;47.966;7.958;2023-01-25T08:49:26;98310.91;;;1.99;87.59
9281;BME280;4679;47.966;7.958;2023-01-25T08:51:29;98312.91;;;2.05;87.34
9281;BME280;4679;47.966;7.958;2023-01-25T08:53:31;98305.41;;;2.10;87.45
9281;BME280;4679;47.966;7.958;2023-01-25T08:55:35;98309.50;;;2.13;86.78
9281;BME280;4679;47.966;7.958;2023-01-25T08:57:37;98308.50;;;2.06;87.51
9281;BME280;4679;47.966;7.958;2023-01-25T08:59:39;98309.31;;;2.06;87.25
9281;BME280;4679;47.966;7.958;2023-01-25T09:01:40;98313.25;;;2.10;87.38
9281;BME280;4679;47.966;7.958;2023-01-25T09:03:43;98318.19;;;2.14;87.36
9281;BME280;4679;47.966;7.958;2023-01-25T09:05:45;98324.09;;;2.24;87.12
9281;BME280;4679;47.966;7.958;2023-01-25T09:07:47;98320.31;;;2.34;87.42
9281;BME280;4679;47.966;7.958;2023-01-25T09:09:48;98318.56;;;2.43;87.17
9281;BME280;4679;47.966;7.958;2023-01-25T09:11:51;98310.03;;;2.49;86.89
9281;BME280;4679;47.966;7.958;2023-01-25T09:13:53;98311.34;;;2.53;87.45
9281;BME280;4679;47.966;7.958;2023-01-25T09:15:58;98316.25;;;2.56;87.27
9281;BME280;4679;47.966;7.958;2023-01-25T09:18:00;98314.94;;;2.60;87.13
9281;BME280;4679;47.966;7.958;2023-01-25T09:20:01;98309.88;;;2.67;87.09
9281;BME280;4679;47.966;7.958;2023-01-25T09:22:03;98303.81;;;2.74;86.75
9281;BME280;4679;47.966;7.958;2023-01-25T09:24:05;98315.28;;;2.81;86.86
9281;BME280;4679;47.966;7.958;2023-01-25T09:26:08;98317.06;;;2.81;86.55
9281;BME280;4679;47.966;7.958;2023-01-25T09:28:11;98314.78;;;2.78;86.59
9281;BME280;4679;47.966;7.958;2023-01-25T09:30:13;98320.19;;;2.85;86.71
9281;BME280;4679;47.966;7.958;2023-01-25T09:32:15;98308.69;;;2.94;86.29
9281;BME280;4679;47.966;7.958;2023-01-25T09:34:17;98304.44;;;3.01;86.57
9281;BME280;4679;47.966;7.958;2023-01-25T09:36:19;98294.28;;;2.98;86.79
9281;BME280;4679;47.966;7.958;2023-01-25T09:38:21;98311.66;;;2.91;86.41
9281;BME280;4679;47.966;7.958;2023-01-25T09:40:29;98302.81;;;2.92;86.72
9281;BME280;4679;47.966;7.958;2023-01-25T09:42:49;98305.59;;;2.82;86.51
9281;BME280;4679;47.966;7.958;2023-01-25T09:45:06;98305.59;;;2.82;86.65
9281;BME280;4679;47.966;7.958;2023-01-25T09:47:18;98306.75;;;2.79;86.63
9281;BME280;4679;47.966;7.958;2023-01-25T09:49:33;98310.06;;;2.73;86.40
9281;BME280;4679;47.966;7.958;2023-01-25T09:51:49;98316.09;;;2.82;86.46
9281;BME280;4679;47.966;7.958;2023-01-25T09:53:53;98312.16;;;2.86;86.60
9281;BME280;4679;47.966;7.958;2023-01-25T09:55:58;98303.13;;;2.97;86.57
9281;BME280;4679;47.966;7.958;2023-01-25T09:58:01;98305.44;;;2.92;86.42
9281;BME280;4679;47.966;7.958;2023-01-25T10:00:15;98300.84;;;2.94;86.42
9281;BME280;4679;47.966;7.958;2023-01-25T10:02:31;98297.88;;;2.97;86.39
9281;BME280;4679;47.966;7.958;2023-01-25T10:04:39;98302.44;;;3.19;86.09
9281;BME280;4679;47.966;7.958;2023-01-25T10:06:43;98305.84;;;3.28;86.09
9281;BME280;4679;47.966;7.958;2023-01-25T10:08:52;98306.34;;;3.31;85.68
9281;BME280;4679;47.966;7.958;2023-01-25T10:10:59;98304.84;;;3.37;85.85
9281;BME280;4679;47.966;7.958;2023-01-25T10:13:07;98307.13;;;3.40;85.75
9281;BME280;4679;47.966;7.958;2023-01-25T10:15:17;98307.00;;;3.33;85.99
9281;BME280;4679;47.966;7.958;2023-01-25T10:17:25;98308.00;;;3.32;85.57
9281;BME280;4679;47.966;7.958;2023-01-25T10:19:36;98291.09;;;3.35;85.52
9281;BME280;4679;47.966;7.958;2023-01-25T10:21:43;98294.50;;;3.43;85.65
9281;BME280;4679;47.966;7.958;2023-01-25T10:24:13;98281.38;;;3.43;85.48
9281;BME280;4679;47.966;7.958;2023-01-25T10:26:24;98280.88;;;3.48;85.60
9281;BME280;4679;47.966;7.958;2023-01-25T10:28:35;98285.28;;;3.56;85.75
9281;BME280;4679;47.966;7.958;2023-01-25T10:30:44;98281.47;;;3.66;85.26
9281;BME280;4679;47.966;7.958;2023-01-25T10:32:49;98283.91;;;3.68;85.26
9281;BME280;4679;47.966;7.958;2023-01-25T10:34:55;98284.88;;;3.67;85.53
9281;BME280;4679;47.966;7.958;2023-01-25T10:37:02;98287.19;;;3.70;85.53
9281;BME280;4679;47.966;7.958;2023-01-25T10:39:04;98277.88;;;3.59;85.35
9281;BME280;4679;47.966;7.958;2023-01-25T10:41:11;98273.28;;;3.61;85.20
9281;BME280;4679;47.966;7.958;2023-01-25T10:43:17;98271.00;;;3.58;85.19
9281;BME280;4679;47.966;7.958;2023-01-25T10:45:20;98268.72;;;3.55;85.25
9281;BME280;4679;47.966;7.958;2023-01-25T10:47:26;98263.06;;;3.35;85.33
9281;BME280;4679;47.966;7.958;2023-01-25T10:49:39;98266.34;;;3.29;85.58
9281;BME280;4679;47.966;7.958;2023-01-25T10:51:41;98261.06;;;3.37;85.25
9281;BME280;4679;47.966;7.958;2023-01-25T10:53:43;98252.28;;;3.22;84.79
9281;BME280;4679;47.966;7.958;2023-01-25T10:55:55;98241.06;;;3.36;85.28
9281;BME280;4679;47.966;7.958;2023-01-25T10:57:58;98249.56;;;3.46;85.32
9281;BME280;4679;47.966;7.958;2023-01-25T11:00:03;98244.63;;;3.51;84.98
9281;BME280;4679;47.966;7.958;2023-01-25T11:02:37;98251.97;;;3.64;85.11
9281;BME280;4679;47.966;7.958;2023-01-25T11:04:39;98245.56;;;3.59;84.79
9281;BME280;4679;47.966;7.958;2023-01-25T11:06:46;98246.50;;;3.35;84.79
9281;BME280;4679;47.966;7.958;2023-01-25T11:08:49;98243.91;;;3.27;85.04
9281;BME280;4679;47.966;7.958;2023-01-25T11:10:51;98248.00;;;3.21;84.92
9281;BME280;4679;47.966;7.958;2023-01-25T11:13:15;98244.41;;;3.22;85.36
9281;BME280;4679;47.966;7.958;2023-01-25T11:15:22;98245.09;;;3.16;85.06
9281;BME280;4679;47.966;7.958;2023-01-25T11:17:27;98241.97;;;3.12;84.85
9281;BME280;4679;47.966;7.958;2023-01-25T11:19:34;98238.69;;;3.18;85.58
9281;BME280;4679;47.966;7.958;2023-01-25T11:21:50;98228.16;;;3.35;84.74
9281;BME280;4679;47.966;7.958;2023-01-25T11:24:04;98229.91;;;3.42;84.50
9281;BME280;4679;47.966;7.958;2023-01-25T11:26:17;98227.44;;;3.41;84.43
9281;BME280;4679;47.966;7.958;2023-01-25T11:28:20;98224.97;;;3.47;84.58
9281;BME280;4679;47.966;7.958;2023-01-25T11:30:22;98218.53;;;3.58;84.64
9281;BME280;4679;47.966;7.958;2023-01-25T11:32:24;98218.34;;;3.60;84.20
9281;BME280;4679;47.966;7.958;2023-01-25T11:34:27;98218.84;;;3.55;84.48
9281;BME280;4679;47.966;7.958;2023-01-25T11:36:38;98202.59;;;3.60;84.55
9281;BME280;4679;47.966;7.958;2023-01-25T11:38:50;98205.53;;;3.65;84.34
9281;BME280;4679;47.966;7.958;2023-01-25T11:41:00;98205.13;;;3.76;84.58
9281;BME280;4679;47.966;7.958;2023-01-25T11:43:19;98201.94;;;3.88;84.14
9281;BME280;4679;47.966;7.958;2023-01-25T11:45:54;98206.13;;;3.75;84.01
9281;BME280;4679;47.966;7.958;2023-01-25T11:48:11;98198.66;;;3.64;84.29
9281;BME280;4679;47.966;7.958;2023-01-25T11:50:23;98198.03;;;3.53;84.14
9281;BME280;4679;47.966;7.958;2023-01-25T11:52:36;98191.13;;;3.61;84.24
9281;BME280;4679;47.966;7.958;2023-01-25T11:54:50;98182.81;;;3.80;84.17
9281;BME280;4679;47.966;7.958;2023-01-25T11:56:57;98177.97;;;3.92;84.07
9281;BME280;4679;47.966;7.958;2023-01-25T11:59:10;98177.19;;;4.06;83.78
9281;BME280;4679;47.966;7.958;2023-01-25T12:01:23;98177.13;;;4.14;83.77
9281;BME280;4679;47.966;7.958;2023-01-25T12:06:44;98168.63;;;4.12;83.64
9281;BME280;4679;47.966;7.958;2023-01-25T12:09:07;98170.19;;;3.98;83.92
9281;BME280;4679;47.966;7.958;2023-01-25T12:11:22;98165.00;;;3.90;83.78
9281;BME280;4679;47.966;7.958;2023-01-25T12:13:36;98158.38;;;3.79;83.73
9281;BME280;4679;47.966;7.958;2023-01-25T12:15:52;98151.13;;;3.81;83.83
9281;BME280;4679;47.966;7.958;2023-01-25T12:18:23;98148.75;;;3.95;83.05
9281;BME280;4679;47.966;7.958;2023-01-25T12:20:41;98140.22;;;3.93;83.66
9281;BME280;4679;47.966;7.958;2023-01-25T12:22:57;98134.31;;;3.91;83.59
9281;BME280;4679;47.966;7.958;2023-01-25T12:25:13;98122.31;;;3.96;83.49
9281;BME280;4679;47.966;7.958;2023-01-25T12:27:29;98112.66;;;4.11;83.49
9281;BME280;4679;47.966;7.958;2023-01-25T12:29:37;98109.09;;;4.04;82.95
9281;BME280;4679;47.966;7.958;2023-01-25T12:31:43;98103.47;;;3.93;82.91
9281;BME280;4679;47.966;7.958;2023-01-25T12:33:52;98099.38;;;3.90;83.25
9281;BME280;4679;47.966;7.958;2023-01-25T12:35:59;98089.09;;;4.03;83.14
9281;BME280;4679;47.966;7.958;2023-01-25T12:38:03;98089.22;;;4.24;82.69
9281;BME280;4679;47.966;7.958;2023-01-25T12:40:10;98086.31;;;4.34;82.77
9281;BME280;4679;47.966;7.958;2023-01-25T12:42:18;98085.44;;;4.42;82.50
9281;BME280;4679;47.966;7.958;2023-01-25T12:44:23;98075.28;;;4.39;82.71
9281;BME280;4679;47.966;7.958;2023-01-25T12:46:30;98073.53;;;4.31;82.45
9281;BME280;4679;47.966;7.958;2023-01-25T12:48:37;98075.00;;;4.34;82.27
9281;BME280;4679;47.966;7.958;2023-01-25T12:50:46;98067.75;;;4.21;82.33
9281;BME280;4679;47.966;7.958;2023-01-25T12:52:52;98066.66;;;4.15;82.61
9281;BME280;4679;47.966;7.958;2023-01-25T12:54:58;98062.50;;;4.21;82.29
9281;BME280;4679;47.966;7.958;2023-01-25T12:57:08;98054.91;;;4.26;82.55
9281;BME280;4679;47.966;7.958;2023-01-25T12:59:16;98053.91;;;4.42;82.12
9281;BME280;4679;47.966;7.958;2023-01-25T13:01:24;98054.16;;;4.62;81.76
9281;BME280;4679;47.966;7.958;2023-01-25T13:03:43;98046.06;;;4.78;81.92
9281;BME280;4679;47.966;7.958;2023-01-25T13:05:50;98038.47;;;4.68;80.93
9281;BME280;4679;47.966;7.958;2023-01-25T13:08:01;98040.94;;;4.70;81.83
9281;BME280;4679;47.966;7.958;2023-01-25T13:10:13;98032.44;;;4.89;81.23
9281;BME280;4679;47.966;7.958;2023-01-25T13:12:17;98033.03;;;4.84;81.07
9281;BME280;4679;47.966;7.958;2023-01-25T13:14:29;98028.84;;;4.75;80.55
9281;BME280;4679;47.966;7.958;2023-01-25T13:16:40;98040.66;;;4.65;81.36
9281;BME280;4679;47.966;7.958;2023-01-25T13:18:42;98028.63;;;4.55;81.35
9281;BME280;4679;47.966;7.958;2023-01-25T13:20:48;98031.16;;;4.49;81.33
9281;BME280;4679;47.966;7.958;2023-01-25T13:22:56;98029.63;;;4.54;80.88
9281;BME280;4679;47.966;7.958;2023-01-25T13:25:08;98038.16;;;4.42;81.04
9281;BME280;4679;47.966;7.958;2023-01-25T13:27:25;98037.22;;;4.35;81.41
9281;BME280;4679;47.966;7.958;2023-01-25T13:29:53;98039.97;;;4.27;81.25
9281;BME280;4679;47.966;7.958;2023-01-25T13:31:55;98032.97;;;4.34;81.30
9281;BME280;4679;47.966;7.958;2023-01-25T13:33:56;98039.78;;;4.43;81.51
9281;BME280;4679;47.966;7.958;2023-01-25T13:38:42;98027.25;;;4.45;81.33
9281;BME280;4679;47.966;7.958;2023-01-25T13:40:45;98031.34;;;4.47;81.24
9281;BME280;4679;47.966;7.958;2023-01-25T13:43:16;98022.56;;;4.40;81.31
9281;BME280;4679;47.966;7.958;2023-01-25T13:45:19;98017.50;;;4.39;81.01
9281;BME280;4679;47.966;7.958;2023-01-25T13:47:23;98016.50;;;4.40;81.43
9281;BME280;4679;47.966;7.958;2023-01-25T13:49:29;98014.22;;;4.37;80.89
9281;BME280;4679;47.966;7.958;2023-01-25T13:51:37;98017.50;;;4.39;80.48
9281;BME280;4679;47.966;7.958;2023-01-25T13:53:39;98014.69;;;4.40;81.20
9281;BME280;4679;47.966;7.958;2023-01-25T13:55:44;98006.97;;;4.39;81.19
9281;BME280;4679;47.966;7.958;2023-01-25T13:57:46;98006.22;;;4.45;80.98
9281;BME280;4679;47.966;7.958;2023-01-25T13:59:57;98011.66;;;4.43;80.91
9281;BME280;4679;47.966;7.958;2023-01-25T14:01:59;98004.72;;;4.36;80.84
9281;BME280;4679;47.966;7.958;2023-01-25T14:04:03;98013.94;;;4.32;81.00
9281;BME280;4679;47.966;7.958;2023-01-25T14:06:06;98014.13;;;4.30;80.86
9281;BME280;4679;47.966;7.958;2023-01-25T14:08:17;98012.50;;;4.29;81.37
9281;BME280;4679;47.966;7.958;2023-01-25T14:10:21;98006.34;;;4.37;80.69
9281;BME280;4679;47.966;7.958;2023-01-25T14:12:32;98003.00;;;4.43;80.88
9281;BME280;4679;47.966;7.958;2023-01-25T14:14:37;98009.31;;;4.34;80.86
9281;BME280;4679;47.966;7.958;2023-01-25T14:16:40;98001.56;;;4.26;80.62
9281;BME280;4679;47.966;7.958;2023-01-25T14:18:42;97996.66;;;4.22;80.61
9281;BME280;4679;47.966;7.958;2023-01-25T14:20:45;98001.63;;;4.17;80.83
9281;BME280;4679;47.966;7.958;2023-01-25T14:22:49;97995.66;;;4.23;81.29
9281;BME280;4679;47.966;7.958;2023-01-25T14:25:12;97994.03;;;4.22;80.51
9281;BME280;4679;47.966;7.958;2023-01-25T14:27:21;97991.88;;;4.26;80.91
9281;BME280;4679;47.966;7.958;2023-01-25T14:29:23;97995.47;;;4.25;80.61
9281;BME280;4679;47.966;7.958;2023-01-25T14:31:27;97992.69;;;4.27;81.45
9281;BME280;4679;47.966;7.958;2023-01-25T14:33:32;97987.50;;;4.18;80.80
9281;BME280;4679;47.966;7.958;2023-01-25T14:35:39;97995.84;;;4.22;81.57
9281;BME280;4679;47.966;7.958;2023-01-25T14:37:41;97992.94;;;4.32;81.03
9281;BME280;4679;47.966;7.958;2023-01-25T14:39:43;97990.31;;;4.17;80.65
9281;BME280;4679;47.966;7.958;2023-01-25T14:41:46;97988.59;;;3.95;80.98
9281;BME280;4679;47.966;7.958;2023-01-25T14:43:53;97990.94;;;3.89;81.40
9281;BME280;4679;47.966;7.958;2023-01-25T14:45:55;97981.06;;;3.92;81.23
9281;BME280;4679;47.966;7.958;2023-01-25T14:47:57;97979.72;;;3.96;81.07
9281;BME280;4679;47.966;7.958;2023-01-25T14:50:32;97990.47;;;3.86;80.80
9281;BME280;4679;47.966;7.958;2023-01-25T14:52:34;97990.09;;;3.74;81.35
9281;BME280;4679;47.966;7.958;2023-01-25T14:54:45;97985.56;;;3.83;80.91
9281;BME280;4679;47.966;7.958;2023-01-25T14:56:49;97981.31;;;3.82;81.50
9281;BME280;4679;47.966;7.958;2023-01-25T14:58:53;97981.31;;;3.82;81.39
9281;BME280;4679;47.966;7.958;2023-01-25T15:00:56;97987.13;;;3.77;81.34
9281;BME280;4679;47.966;7.958;2023-01-25T15:03:00;97987.31;;;3.76;81.19
9281;BME280;4679;47.966;7.958;2023-01-25T15:05:06;97983.94;;;3.82;81.02
9281;BME280;4679;47.966;7.958;2023-01-25T15:07:33;97989.81;;;3.84;81.17
9281;BME280;4679;47.966;7.958;2023-01-25T15:09:38;97983.41;;;3.86;80.58
9281;BME280;4679;47.966;7.958;2023-01-25T15:11:42;97985.50;;;3.76;80.89
9281;BME280;4679;47.966;7.958;2023-01-25T15:13:59;97984.56;;;3.69;81.33
9281;BME280;4679;47.966;7.958;2023-01-25T15:16:02;97982.91;;;3.53;81.46
9281;BME280;4679;47.966;7.958;2023-01-25T15:18:05;97980.56;;;3.59;81.48
9281;BME280;4679;47.966;7.958;2023-01-25T15:20:34;97981.09;;;3.54;81.41
9281;BME280;4679;47.966;7.958;2023-01-25T15:22:38;97980.66;;;3.50;82.02
9281;BME280;4679;47.966;7.958;2023-01-25T15:24:39;97964.91;;;3.50;81.46
9281;BME280;4679;47.966;7.958;2023-01-25T15:26:41;97973.94;;;3.48;81.40
9281;BME280;4679;47.966;7.958;2023-01-25T15:28:43;97975.13;;;3.45;81.38
9281;BME280;4679;47.966;7.958;2023-01-25T15:30:45;97970.22;;;3.42;81.34
9281;BME280;4679;47.966;7.958;2023-01-25T15:32:48;97968.28;;;3.36;81.83
9281;BME280;4679;47.966;7.958;2023-01-25T15:34:49;97971.28;;;3.33;81.66
9281;BME280;4679;47.966;7.958;2023-01-25T15:36:51;97966.84;;;3.34;81.77
9281;BME280;4679;47.966;7.958;2023-01-25T15:38:54;97961.44;;;3.35;81.29
9281;BME280;4679;47.966;7.958;2023-01-25T15:40:56;97967.84;;;3.33;81.85
9281;BME280;4679;47.966;7.958;2023-01-25T15:43:00;97957.53;;;3.31;81.56
9281;BME280;4679;47.966;7.958;2023-01-25T15:45:02;97958.53;;;3.30;81.73
9281;BME280;4679;47.966;7.958;2023-01-25T15:47:04;97956.88;;;3.29;81.65
9281;BME280;4679;47.966;7.958;2023-01-25T15:49:07;97956.06;;;3.29;81.30
9281;BME280;4679;47.966;7.958;2023-01-25T15:51:10;97947.09;;;3.23;81.96
9281;BME280;4679;47.966;7.958;2023-01-25T15:53:14;97956.31;;;3.19;81.96
9281;BME280;4679;47.966;7.958;2023-01-25T15:55:17;97950.78;;;3.14;81.69
9281;BME280;4679;47.966;7.958;2023-01-25T15:57:24;97956.66;;;3.16;82.31
9281;BME280;4679;47.966;7.958;2023-01-25T15:59:27;97948.50;;;3.11;82.22
9281;BME280;4679;47.966;7.958;2023-01-25T16:01:29;97956.06;;;3.06;82.02
9281;BME280;4679;47.966;7.958;2023-01-25T16:03:31;97947.41;;;3.05;81.89
9281;BME280;4679;47.966;7.958;2023-01-25T16:05:32;97946.41;;;3.06;81.97
9281;BME280;4679;47.966;7.958;2023-01-25T16:07:35;97945.59;;;3.06;81.88
9281;BME280;4679;47.966;7.958;2023-01-25T16:09:38;97943.34;;;3.03;82.29
9281;BME280;4679;47.966;7.958;2023-01-25T16:11:41;97931.91;;;2.96;82.30
9281;BME280;4679;47.966;7.958;2023-01-25T16:13:42;97926.03;;;2.94;82.46
9281;BME280;4679;47.966;7.958;2023-01-25T16:15:47;97930.44;;;2.93;81.65
9281;BME280;4679;47.966;7.958;2023-01-25T16:17:49;97922.41;;;2.95;82.63
9281;BME280;4679;47.966;7.958;2023-01-25T16:19:51;97925.38;;;2.92;82.48
9281;BME280;4679;47.966;7.958;2023-01-25T16:21:53;97921.78;;;2.93;82.21
9281;BME280;4679;47.966;7.958;2023-01-25T16:23:54;97923.41;;;2.94;82.03
9281;BME280;4679;47.966;7.958;2023-01-25T16:25:56;97917.16;;;2.95;81.98
9281;BME280;4679;47.966;7.958;2023-01-25T16:27:59;97928.66;;;2.94;82.41
9281;BME280;4679;47.966;7.958;2023-01-25T16:30:01;97921.59;;;2.94;82.48
9281;BME280;4679;47.966;7.958;2023-01-25T16:32:04;97918.00;;;2.95;82.33
9281;BME280;4679;47.966;7.958;2023-01-25T16:34:05;97917.06;;;2.88;82.06
9281;BME280;4679;47.966;7.958;2023-01-25T16:36:13;97921.38;;;2.81;82.28
9281;BME280;4679;47.966;7.958;2023-01-25T16:38:15;97914.03;;;2.76;82.49
9281;BME280;4679;47.966;7.958;2023-01-25T16:40:20;97919.00;;;2.71;82.66
9281;BME280;4679;47.966;7.958;2023-01-25T16:42:23;97909.84;;;2.67;81.90
9281;BME280;4679;47.966;7.958;2023-01-25T16:44:26;97921.38;;;2.58;83.03
9281;BME280;4679;47.966;7.958;2023-01-25T16:46:27;97922.03;;;2.52;82.33
9281;BME280;4679;47.966;7.958;2023-01-25T16:48:29;97919.09;;;2.55;83.07
9281;BME280;4679;47.966;7.958;2023-01-25T16:50:31;97900.41;;;2.58;82.33
9281;BME280;4679;47.966;7.958;2023-01-25T16:52:32;97908.13;;;2.52;82.53
9281;BME280;4679;47.966;7.958;2023-01-25T16:54:34;97904.88;;;2.50;82.98
9281;BME280;4679;47.966;7.958;2023-01-25T16:56:36;97900.44;;;2.50;82.29
9281;BME280;4679;47.966;7.958;2023-01-25T16:58:38;97892.09;;;2.55;82.91
9281;BME280;4679;47.966;7.958;2023-01-25T17:00:41;97889.94;;;2.58;82.39
9281;BME280;4679;47.966;7.958;2023-01-25T17:02:43;97893.16;;;2.60;82.76
9281;BME280;4679;47.966;7.958;2023-01-25T17:04:45;97888.94;;;2.59;82.67
9281;BME280;4679;47.966;7.958;2023-01-25T17:06:48;97894.22;;;2.51;82.47
9281;BME280;4679;47.966;7.958;2023-01-25T17:08:50;97899.81;;;2.48;82.67
9281;BME280;4679;47.966;7.958;2023-01-25T17:10:52;97899.16;;;2.46;82.51
9281;BME280;4679;47.966;7.958;2023-01-25T17:12:56;97893.09;;;2.45;83.16
9281;BME280;4679;47.966;7.958;2023-01-25T17:14:58;97898.06;;;2.40;83.10
9281;BME280;4679;47.966;7.958;2023-01-25T17:17:01;97898.75;;;2.34;83.25
9281;BME280;4679;47.966;7.958;2023-01-25T17:19:06;97895.03;;;2.29;82.85
9281;BME280;4679;47.966;7.958;2023-01-25T17:21:09;97889.81;;;2.21;83.32
9281;BME280;4679;47.966;7.958;2023-01-25T17:23:13;97902.72;;;2.22;83.38
9281;BME280;4679;47.966;7.958;2023-01-25T17:25:15;97899.00;;;2.17;83.25
9281;BME280;4679;47.966;7.958;2023-01-25T17:27:17;97901.97;;;2.14;83.54
9281;BME280;4679;47.966;7.958;2023-01-25T17:29:20;97910.00;;;2.12;83.79
9281;BME280;4679;47.966;7.958;2023-01-25T17:31:23;97903.78;;;2.13;83.06
9281;BME280;4679;47.966;7.958;2023-01-25T17:33:27;97897.41;;;2.07;83.79
9281;BME280;4679;47.966;7.958;2023-01-25T17:35:28;97894.44;;;2.10;83.10
9281;BME280;4679;47.966;7.958;2023-01-25T17:37:30;97895.59;;;2.08;83.66
9281;BME280;4679;47.966;7.958;2023-01-25T17:39:32;97897.88;;;2.11;83.66
9281;BME280;4679;47.966;7.958;2023-01-25T17:41:34;97891.50;;;2.14;83.11
9281;BME280;4679;47.966;7.958;2023-01-25T17:43:36;97888.25;;;2.11;83.60
9281;BME280;4679;47.966;7.958;2023-01-25T17:45:37;97890.22;;;2.09;83.19
9281;BME280;4679;47.966;7.958;2023-01-25T17:47:39;97882.00;;;2.13;83.63
9281;BME280;4679;47.966;7.958;2023-01-25T17:49:42;97884.63;;;2.13;83.50
9281;BME280;4679;47.966;7.958;2023-01-25T17:51:44;97879.41;;;2.13;83.14
9281;BME280;4679;47.966;7.958;2023-01-25T17:53:46;97876.81;;;2.04;83.89
9281;BME280;4679;47.966;7.958;2023-01-25T17:55:47;97879.81;;;1.93;83.73
9281;BME280;4679;47.966;7.958;2023-01-25T17:57:50;97879.38;;;1.82;83.64
9281;BME280;4679;47.966;7.958;2023-01-25T17:59:51;97878.03;;;1.86;84.30
9281;BME280;4679;47.966;7.958;2023-01-25T18:01:53;97877.19;;;1.93;83.68
9281;BME280;4679;47.966;7.958;2023-01-25T18:03:55;97876.38;;;1.85;83.71
9281;BME280;4679;47.966;7.958;2023-01-25T18:05:58;97878.06;;;1.77;83.85
9281;BME280;4679;47.966;7.958;2023-01-25T18:08:07;97868.75;;;1.75;84.03
9281;BME280;4679;47.966;7.958;2023-01-25T18:10:09;97878.09;;;1.69;83.90
9281;BME280;4679;47.966;7.958;2023-01-25T18:12:11;97865.97;;;1.68;83.83
9281;BME280;4679;47.966;7.958;2023-01-25T18:14:13;97870.44;;;1.68;84.43
9281;BME280;4679;47.966;7.958;2023-01-25T18:16:17;97870.72;;;1.73;84.34
9281;BME280;4679;47.966;7.958;2023-01-25T18:18:20;97875.63;;;1.76;84.32
9281;BME280;4679;47.966;7.958;2023-01-25T18:20:23;97869.25;;;1.79;84.06
9281;BME280;4679;47.966;7.958;2023-01-25T18:22:26;97875.63;;;1.76;84.13
9281;BME280;4679;47.966;7.958;2023-01-25T18:24:30;97872.03;;;1.77;84.81
9281;BME280;4679;47.966;7.958;2023-01-25T18:26:34;97860.25;;;1.81;84.17
9281;BME280;4679;47.966;7.958;2023-01-25T18:28:36;97870.19;;;1.86;84.78
9281;BME280;4679;47.966;7.958;2023-01-25T18:30:42;97863.50;;;1.83;84.93
9281;BME280;4679;47.966;7.958;2023-01-25T18:32:44;97861.88;;;1.74;84.25
9281;BME280;4679;47.966;7.958;2023-01-25T18:34:46;97861.88;;;1.74;84.50
9281;BME280;4679;47.966;7.958;2023-01-25T18:36:48;97859.59;;;1.71;84.08
9281;BME280;4679;47.966;7.958;2023-01-25T18:38:51;97856.34;;;1.69;84.99
9281;BME280;4679;47.966;7.958;2023-01-25T18:40:53;97857.53;;;1.66;84.73
9281;BME280;4679;47.966;7.958;2023-01-25T18:42:55;97862.59;;;1.68;85.05
9281;BME280;4679;47.966;7.958;2023-01-25T18:44:57;97861.88;;;1.74;84.94
9281;BME280;4679;47.966;7.958;2023-01-25T18:46:59;97857.00;;;1.71;84.29
9281;BME280;4679;47.966;7.958;2023-01-25T18:49:00;97863.22;;;1.70;84.84
9281;BME280;4679;47.966;7.958;2023-01-25T18:51:05;97855.34;;;1.70;84.36
9281;BME280;4679;47.966;7.958;2023-01-25T18:53:07;97854.38;;;1.71;84.52
9281;BME280;4679;47.966;7.958;2023-01-25T18:55:11;97853.41;;;1.72;84.85